sensor_id;sensor_type;location;lat;lon;timestamp;P1;durP1;ratioP1;P2;durP2;ratioP2
44169;SDS011;29836;52.286;9.576;2023-09-12T00:00:44;16.77;;;10.73;;
44169;SDS011;29836;52.286;9.576;2023-09-12T00:03:10;15.50;;;10.77;;
44169;SDS011;29836;52.286;9.576;2023-09-12T00:05:36;14.23;;;11.05;;
44169;SDS011;29836;52.286;9.576;2023-09-12T00:08:02;14.65;;;10.73;;
44169;SDS011;29836;52.286;9.576;2023-09-12T00:10:28;14.43;;;10.93;;
44169;SDS011;29836;52.286;9.576;2023-09-12T00:12:54;15.30;;;11.00;;
44169;SDS011;29836;52.286;9.576;2023-09-12T00:15:20;19.45;;;10.65;;
44169;SDS011;29836;52.286;9.576;2023-09-12T00:17:46;14.57;;;10.68;;
44169;SDS011;29836;52.286;9.576;2023-09-12T00:20:13;16.42;;;11.05;;
44169;SDS011;29836;52.286;9.576;2023-09-12T00:22:39;18.05;;;11.95;;
44169;SDS011;29836;52.286;9.576;2023-09-12T00:25:05;18.20;;;11.48;;
44169;SDS011;29836;52.286;9.576;2023-09-12T00:27:31;18.15;;;11.30;;
44169;SDS011;29836;52.286;9.576;2023-09-12T00:29:56;17.10;;;11.75;;
44169;SDS011;29836;52.286;9.576;2023-09-12T00:32:22;17.77;;;12.02;;
44169;SDS011;29836;52.286;9.576;2023-09-12T00:34:47;23.33;;;12.25;;
44169;SDS011;29836;52.286;9.576;2023-09-12T00:37:13;18.00;;;13.10;;
44169;SDS011;29836;52.286;9.576;2023-09-12T00:39:38;16.77;;;12.80;;
44169;SDS011;29836;52.286;9.576;2023-09-12T00:42:04;17.05;;;12.38;;
44169;SDS011;29836;52.286;9.576;2023-09-12T00:44:32;16.10;;;11.88;;
44169;SDS011;29836;52.286;9.576;2023-09-12T00:46:58;18.00;;;12.60;;
44169;SDS011;29836;52.286;9.576;2023-09-12T00:49:25;16.85;;;11.48;;
44169;SDS011;29836;52.286;9.576;2023-09-12T00:51:53;15.52;;;10.73;;
44169;SDS011;29836;52.286;9.576;2023-09-12T00:54:20;16.63;;;11.90;;
44169;SDS011;29836;52.286;9.576;2023-09-12T00:56:45;16.08;;;11.20;;
44169;SDS011;29836;52.286;9.576;2023-09-12T00:59:11;16.75;;;11.55;;
44169;SDS011;29836;52.286;9.576;2023-09-12T01:01:37;15.68;;;11.88;;
44169;SDS011;29836;52.286;9.576;2023-09-12T01:04:03;15.77;;;11.70;;
44169;SDS011;29836;52.286;9.576;2023-09-12T01:06:29;14.98;;;11.88;;
44169;SDS011;29836;52.286;9.576;2023-09-12T01:08:58;19.52;;;14.13;;
44169;SDS011;29836;52.286;9.576;2023-09-12T01:11:24;14.93;;;11.63;;
44169;SDS011;29836;52.286;9.576;2023-09-12T01:13:50;15.63;;;11.50;;
44169;SDS011;29836;52.286;9.576;2023-09-12T01:16:15;14.68;;;10.75;;
44169;SDS011;29836;52.286;9.576;2023-09-12T01:18:41;18.10;;;11.45;;
44169;SDS011;29836;52.286;9.576;2023-09-12T01:27:14;18.90;;;12.77;;
44169;SDS011;29836;52.286;9.576;2023-09-12T01:29:53;19.65;;;13.27;;
44169;SDS011;29836;52.286;9.576;2023-09-12T01:32:22;17.65;;;11.85;;
44169;SDS011;29836;52.286;9.576;2023-09-12T01:34:48;13.77;;;11.10;;
44169;SDS011;29836;52.286;9.576;2023-09-12T01:37:13;18.33;;;12.55;;
44169;SDS011;29836;52.286;9.576;2023-09-12T01:39:40;19.75;;;12.57;;
44169;SDS011;29836;52.286;9.576;2023-09-12T01:42:06;18.27;;;13.77;;
44169;SDS011;29836;52.286;9.576;2023-09-12T01:44:36;18.00;;;12.23;;
44169;SDS011;29836;52.286;9.576;2023-09-12T01:47:03;18.52;;;12.73;;
44169;SDS011;29836;52.286;9.576;2023-09-12T01:49:29;15.30;;;11.85;;
44169;SDS011;29836;52.286;9.576;2023-09-12T01:51:57;16.73;;;12.18;;
44169;SDS011;29836;52.286;9.576;2023-09-12T01:54:24;25.85;;;17.33;;
44169;SDS011;29836;52.286;9.576;2023-09-12T01:56:52;25.55;;;17.73;;
44169;SDS011;29836;52.286;9.576;2023-09-12T01:59:20;26.95;;;17.67;;
44169;SDS011;29836;52.286;9.576;2023-09-12T02:01:46;21.58;;;15.15;;
44169;SDS011;29836;52.286;9.576;2023-09-12T02:04:11;22.85;;;16.60;;
44169;SDS011;29836;52.286;9.576;2023-09-12T02:06:37;23.85;;;15.55;;
44169;SDS011;29836;52.286;9.576;2023-09-12T02:09:03;23.25;;;15.27;;
44169;SDS011;29836;52.286;9.576;2023-09-12T02:11:29;18.30;;;13.82;;
44169;SDS011;29836;52.286;9.576;2023-09-12T02:13:54;18.02;;;14.13;;
44169;SDS011;29836;52.286;9.576;2023-09-12T02:16:20;18.27;;;13.68;;
44169;SDS011;29836;52.286;9.576;2023-09-12T02:18:45;17.20;;;13.93;;
44169;SDS011;29836;52.286;9.576;2023-09-12T02:21:11;19.20;;;15.30;;
44169;SDS011;29836;52.286;9.576;2023-09-12T02:23:37;19.00;;;14.43;;
44169;SDS011;29836;52.286;9.576;2023-09-12T02:26:02;22.75;;;16.83;;
44169;SDS011;29836;52.286;9.576;2023-09-12T02:28:28;21.58;;;16.15;;
44169;SDS011;29836;52.286;9.576;2023-09-12T02:30:53;23.50;;;16.65;;
44169;SDS011;29836;52.286;9.576;2023-09-12T02:33:19;23.95;;;16.60;;
44169;SDS011;29836;52.286;9.576;2023-09-12T02:35:44;20.10;;;16.10;;
44169;SDS011;29836;52.286;9.576;2023-09-12T02:38:10;20.20;;;16.27;;
44169;SDS011;29836;52.286;9.576;2023-09-12T02:40:35;22.90;;;15.82;;
44169;SDS011;29836;52.286;9.576;2023-09-12T02:43:01;20.98;;;16.10;;
44169;SDS011;29836;52.286;9.576;2023-09-12T02:45:27;24.65;;;16.75;;
44169;SDS011;29836;52.286;9.576;2023-09-12T02:47:52;22.10;;;16.45;;
44169;SDS011;29836;52.286;9.576;2023-09-12T02:50:18;23.33;;;16.42;;
44169;SDS011;29836;52.286;9.576;2023-09-12T02:52:43;23.58;;;16.80;;
44169;SDS011;29836;52.286;9.576;2023-09-12T02:55:09;21.13;;;16.58;;
44169;SDS011;29836;52.286;9.576;2023-09-12T02:57:35;22.45;;;15.60;;
44169;SDS011;29836;52.286;9.576;2023-09-12T03:00:01;22.67;;;17.38;;
44169;SDS011;29836;52.286;9.576;2023-09-12T03:02:27;23.33;;;16.83;;
44169;SDS011;29836;52.286;9.576;2023-09-12T03:04:54;22.02;;;17.23;;
44169;SDS011;29836;52.286;9.576;2023-09-12T03:07:20;20.15;;;15.85;;
44169;SDS011;29836;52.286;9.576;2023-09-12T03:09:47;19.42;;;16.05;;
44169;SDS011;29836;52.286;9.576;2023-09-12T03:12:14;20.80;;;15.70;;
44169;SDS011;29836;52.286;9.576;2023-09-12T03:14:40;24.40;;;16.08;;
44169;SDS011;29836;52.286;9.576;2023-09-12T03:17:05;19.80;;;14.40;;
44169;SDS011;29836;52.286;9.576;2023-09-12T03:19:31;20.52;;;15.43;;
44169;SDS011;29836;52.286;9.576;2023-09-12T03:21:57;18.38;;;14.20;;
44169;SDS011;29836;52.286;9.576;2023-09-12T03:24:22;22.63;;;14.68;;
44169;SDS011;29836;52.286;9.576;2023-09-12T03:26:50;18.08;;;13.80;;
44169;SDS011;29836;52.286;9.576;2023-09-12T03:29:15;19.20;;;15.68;;
44169;SDS011;29836;52.286;9.576;2023-09-12T03:31:41;18.70;;;15.02;;
44169;SDS011;29836;52.286;9.576;2023-09-12T03:34:07;21.05;;;15.32;;
44169;SDS011;29836;52.286;9.576;2023-09-12T03:36:32;20.23;;;15.60;;
44169;SDS011;29836;52.286;9.576;2023-09-12T03:38:58;20.13;;;15.95;;
44169;SDS011;29836;52.286;9.576;2023-09-12T03:41:23;18.83;;;14.80;;
44169;SDS011;29836;52.286;9.576;2023-09-12T03:43:52;23.90;;;15.93;;
44169;SDS011;29836;52.286;9.576;2023-09-12T03:46:18;22.13;;;17.55;;
44169;SDS011;29836;52.286;9.576;2023-09-12T03:48:44;23.15;;;17.90;;
44169;SDS011;29836;52.286;9.576;2023-09-12T03:51:10;26.90;;;18.42;;
44169;SDS011;29836;52.286;9.576;2023-09-12T03:53:36;25.77;;;18.55;;
44169;SDS011;29836;52.286;9.576;2023-09-12T03:56:02;24.85;;;18.60;;
44169;SDS011;29836;52.286;9.576;2023-09-12T03:58:27;25.30;;;18.05;;
44169;SDS011;29836;52.286;9.576;2023-09-12T04:00:53;22.38;;;17.67;;
44169;SDS011;29836;52.286;9.576;2023-09-12T04:03:18;25.83;;;18.25;;
44169;SDS011;29836;52.286;9.576;2023-09-12T04:05:46;23.67;;;17.38;;
44169;SDS011;29836;52.286;9.576;2023-09-12T04:08:12;25.85;;;19.67;;
44169;SDS011;29836;52.286;9.576;2023-09-12T04:10:38;25.27;;;18.33;;
44169;SDS011;29836;52.286;9.576;2023-09-12T04:13:03;22.20;;;14.10;;
44169;SDS011;29836;52.286;9.576;2023-09-12T04:15:29;24.67;;;19.95;;
44169;SDS011;29836;52.286;9.576;2023-09-12T04:17:54;28.77;;;20.42;;
44169;SDS011;29836;52.286;9.576;2023-09-12T04:20:20;32.15;;;20.85;;
44169;SDS011;29836;52.286;9.576;2023-09-12T04:22:46;24.70;;;18.48;;
44169;SDS011;29836;52.286;9.576;2023-09-12T04:25:11;22.10;;;17.42;;
44169;SDS011;29836;52.286;9.576;2023-09-12T04:27:37;30.90;;;21.80;;
44169;SDS011;29836;52.286;9.576;2023-09-12T04:30:03;20.83;;;16.80;;
44169;SDS011;29836;52.286;9.576;2023-09-12T04:32:29;29.08;;;20.02;;
44169;SDS011;29836;52.286;9.576;2023-09-12T04:34:54;21.15;;;15.98;;
44169;SDS011;29836;52.286;9.576;2023-09-12T04:37:20;23.08;;;17.25;;
44169;SDS011;29836;52.286;9.576;2023-09-12T04:39:45;23.95;;;18.83;;
44169;SDS011;29836;52.286;9.576;2023-09-12T04:42:11;27.98;;;19.55;;
44169;SDS011;29836;52.286;9.576;2023-09-12T04:44:39;23.98;;;18.27;;
44169;SDS011;29836;52.286;9.576;2023-09-12T04:47:05;28.35;;;19.17;;
44169;SDS011;29836;52.286;9.576;2023-09-12T04:49:31;25.52;;;16.83;;
44169;SDS011;29836;52.286;9.576;2023-09-12T04:51:56;23.25;;;16.70;;
44169;SDS011;29836;52.286;9.576;2023-09-12T04:54:22;29.02;;;20.80;;
44169;SDS011;29836;52.286;9.576;2023-09-12T04:56:48;27.90;;;21.05;;
44169;SDS011;29836;52.286;9.576;2023-09-12T04:59:13;27.63;;;19.50;;
44169;SDS011;29836;52.286;9.576;2023-09-12T05:01:39;28.85;;;20.98;;
44169;SDS011;29836;52.286;9.576;2023-09-12T05:04:05;29.35;;;20.75;;
44169;SDS011;29836;52.286;9.576;2023-09-12T05:06:30;32.15;;;21.60;;
44169;SDS011;29836;52.286;9.576;2023-09-12T05:08:56;29.83;;;23.02;;
44169;SDS011;29836;52.286;9.576;2023-09-12T05:11:22;23.52;;;17.42;;
44169;SDS011;29836;52.286;9.576;2023-09-12T05:13:51;30.73;;;21.42;;
44169;SDS011;29836;52.286;9.576;2023-09-12T05:16:17;33.45;;;22.08;;
44169;SDS011;29836;52.286;9.576;2023-09-12T05:18:43;31.23;;;22.52;;
44169;SDS011;29836;52.286;9.576;2023-09-12T05:21:08;26.52;;;18.35;;
44169;SDS011;29836;52.286;9.576;2023-09-12T05:23:34;28.15;;;18.70;;
44169;SDS011;29836;52.286;9.576;2023-09-12T05:25:59;29.75;;;21.13;;
44169;SDS011;29836;52.286;9.576;2023-09-12T05:28:25;29.23;;;20.30;;
44169;SDS011;29836;52.286;9.576;2023-09-12T05:30:51;28.45;;;20.95;;
44169;SDS011;29836;52.286;9.576;2023-09-12T05:33:17;29.40;;;19.80;;
44169;SDS011;29836;52.286;9.576;2023-09-12T05:35:43;27.65;;;19.33;;
44169;SDS011;29836;52.286;9.576;2023-09-12T05:38:12;24.35;;;18.17;;
44169;SDS011;29836;52.286;9.576;2023-09-12T05:40:37;22.50;;;17.83;;
44169;SDS011;29836;52.286;9.576;2023-09-12T05:43:03;22.90;;;16.23;;
44169;SDS011;29836;52.286;9.576;2023-09-12T05:45:28;22.05;;;16.98;;
44169;SDS011;29836;52.286;9.576;2023-09-12T05:47:58;24.20;;;18.02;;
44169;SDS011;29836;52.286;9.576;2023-09-12T05:50:24;25.60;;;18.23;;
44169;SDS011;29836;52.286;9.576;2023-09-12T05:52:49;22.55;;;16.83;;
44169;SDS011;29836;52.286;9.576;2023-09-12T05:55:16;25.50;;;18.00;;
44169;SDS011;29836;52.286;9.576;2023-09-12T05:57:42;24.20;;;17.08;;
44169;SDS011;29836;52.286;9.576;2023-09-12T06:00:08;35.15;;;17.85;;
44169;SDS011;29836;52.286;9.576;2023-09-12T06:02:37;22.10;;;11.82;;
44169;SDS011;29836;52.286;9.576;2023-09-12T06:05:03;14.65;;;9.43;;
44169;SDS011;29836;52.286;9.576;2023-09-12T06:07:29;14.30;;;9.32;;
44169;SDS011;29836;52.286;9.576;2023-09-12T06:09:56;16.42;;;10.82;;
44169;SDS011;29836;52.286;9.576;2023-09-12T06:12:22;15.50;;;8.18;;
44169;SDS011;29836;52.286;9.576;2023-09-12T06:14:48;12.88;;;8.13;;
44169;SDS011;29836;52.286;9.576;2023-09-12T06:17:14;13.43;;;6.93;;
44169;SDS011;29836;52.286;9.576;2023-09-12T06:19:39;8.50;;;6.18;;
44169;SDS011;29836;52.286;9.576;2023-09-12T06:22:05;13.13;;;5.97;;
44169;SDS011;29836;52.286;9.576;2023-09-12T06:24:30;9.90;;;5.38;;
44169;SDS011;29836;52.286;9.576;2023-09-12T06:26:56;8.75;;;5.03;;
44169;SDS011;29836;52.286;9.576;2023-09-12T06:29:22;7.43;;;5.20;;
44169;SDS011;29836;52.286;9.576;2023-09-12T06:31:47;10.07;;;4.90;;
44169;SDS011;29836;52.286;9.576;2023-09-12T06:34:13;7.78;;;5.20;;
44169;SDS011;29836;52.286;9.576;2023-09-12T06:36:39;11.00;;;5.72;;
44169;SDS011;29836;52.286;9.576;2023-09-12T06:39:06;10.82;;;6.32;;
44169;SDS011;29836;52.286;9.576;2023-09-12T06:41:32;12.85;;;6.28;;
44169;SDS011;29836;52.286;9.576;2023-09-12T06:43:57;13.93;;;6.88;;
44169;SDS011;29836;52.286;9.576;2023-09-12T06:46:23;10.23;;;6.95;;
44169;SDS011;29836;52.286;9.576;2023-09-12T06:48:49;11.98;;;8.70;;
44169;SDS011;29836;52.286;9.576;2023-09-12T06:51:15;13.43;;;9.75;;
44169;SDS011;29836;52.286;9.576;2023-09-12T06:53:41;12.32;;;9.23;;
44169;SDS011;29836;52.286;9.576;2023-09-12T06:56:07;11.60;;;8.95;;
44169;SDS011;29836;52.286;9.576;2023-09-12T06:58:33;15.43;;;7.60;;
44169;SDS011;29836;52.286;9.576;2023-09-12T07:01:02;10.85;;;6.60;;
44169;SDS011;29836;52.286;9.576;2023-09-12T07:03:29;10.70;;;6.47;;
44169;SDS011;29836;52.286;9.576;2023-09-12T07:05:55;13.10;;;7.75;;
44169;SDS011;29836;52.286;9.576;2023-09-12T07:08:20;14.02;;;9.70;;
44169;SDS011;29836;52.286;9.576;2023-09-12T07:10:46;15.60;;;11.20;;
44169;SDS011;29836;52.286;9.576;2023-09-12T07:13:11;17.67;;;12.98;;
44169;SDS011;29836;52.286;9.576;2023-09-12T07:15:37;21.20;;;14.68;;
44169;SDS011;29836;52.286;9.576;2023-09-12T07:18:03;21.00;;;15.07;;
44169;SDS011;29836;52.286;9.576;2023-09-12T07:20:30;23.25;;;14.57;;
44169;SDS011;29836;52.286;9.576;2023-09-12T07:22:56;24.98;;;16.02;;
44169;SDS011;29836;52.286;9.576;2023-09-12T07:25:21;24.98;;;17.10;;
44169;SDS011;29836;52.286;9.576;2023-09-12T07:27:48;27.33;;;17.48;;
44169;SDS011;29836;52.286;9.576;2023-09-12T07:30:18;24.60;;;17.60;;
44169;SDS011;29836;52.286;9.576;2023-09-12T07:32:44;25.67;;;17.38;;
44169;SDS011;29836;52.286;9.576;2023-09-12T07:35:09;26.48;;;17.08;;
44169;SDS011;29836;52.286;9.576;2023-09-12T07:37:35;18.60;;;15.38;;
44169;SDS011;29836;52.286;9.576;2023-09-12T07:40:01;16.63;;;12.43;;
44169;SDS011;29836;52.286;9.576;2023-09-12T07:42:31;17.75;;;13.25;;
44169;SDS011;29836;52.286;9.576;2023-09-12T07:44:57;20.02;;;13.80;;
44169;SDS011;29836;52.286;9.576;2023-09-12T07:47:23;17.35;;;12.38;;
44169;SDS011;29836;52.286;9.576;2023-09-12T07:49:54;14.02;;;7.97;;
44169;SDS011;29836;52.286;9.576;2023-09-12T07:52:20;9.98;;;6.45;;
44169;SDS011;29836;52.286;9.576;2023-09-12T07:54:46;8.68;;;6.78;;
44169;SDS011;29836;52.286;9.576;2023-09-12T07:57:13;11.90;;;7.15;;
44169;SDS011;29836;52.286;9.576;2023-09-12T07:59:39;10.20;;;7.18;;
44169;SDS011;29836;52.286;9.576;2023-09-12T08:02:04;9.60;;;6.70;;
44169;SDS011;29836;52.286;9.576;2023-09-12T08:04:30;10.30;;;7.32;;
44169;SDS011;29836;52.286;9.576;2023-09-12T08:06:56;10.60;;;6.95;;
44169;SDS011;29836;52.286;9.576;2023-09-12T08:09:21;9.60;;;5.90;;
44169;SDS011;29836;52.286;9.576;2023-09-12T08:11:47;7.90;;;6.28;;
44169;SDS011;29836;52.286;9.576;2023-09-12T08:14:12;8.73;;;5.95;;
44169;SDS011;29836;52.286;9.576;2023-09-12T08:16:38;9.40;;;6.55;;
44169;SDS011;29836;52.286;9.576;2023-09-12T08:19:03;7.22;;;5.85;;
44169;SDS011;29836;52.286;9.576;2023-09-12T08:21:29;9.27;;;6.55;;
44169;SDS011;29836;52.286;9.576;2023-09-12T08:23:55;9.98;;;7.80;;
44169;SDS011;29836;52.286;9.576;2023-09-12T08:26:20;11.63;;;8.73;;
44169;SDS011;29836;52.286;9.576;2023-09-12T08:28:46;11.07;;;8.40;;
44169;SDS011;29836;52.286;9.576;2023-09-12T08:31:11;12.63;;;9.75;;
44169;SDS011;29836;52.286;9.576;2023-09-12T08:33:37;12.93;;;8.52;;
44169;SDS011;29836;52.286;9.576;2023-09-12T08:36:02;11.70;;;7.47;;
44169;SDS011;29836;52.286;9.576;2023-09-12T08:38:28;8.98;;;6.45;;
44169;SDS011;29836;52.286;9.576;2023-09-12T08:40:54;9.23;;;6.00;;
44169;SDS011;29836;52.286;9.576;2023-09-12T08:43:20;8.18;;;5.90;;
44169;SDS011;29836;52.286;9.576;2023-09-12T08:45:45;8.35;;;5.38;;
44169;SDS011;29836;52.286;9.576;2023-09-12T08:48:12;10.80;;;5.05;;
44169;SDS011;29836;52.286;9.576;2023-09-12T08:50:40;6.93;;;5.10;;
44169;SDS011;29836;52.286;9.576;2023-09-12T08:53:06;5.70;;;4.25;;
44169;SDS011;29836;52.286;9.576;2023-09-12T08:55:31;6.75;;;4.78;;
44169;SDS011;29836;52.286;9.576;2023-09-12T08:58:00;7.38;;;4.40;;
44169;SDS011;29836;52.286;9.576;2023-09-12T09:00:27;6.88;;;4.20;;
44169;SDS011;29836;52.286;9.576;2023-09-12T09:02:53;4.93;;;3.83;;
44169;SDS011;29836;52.286;9.576;2023-09-12T09:05:20;8.43;;;4.10;;
44169;SDS011;29836;52.286;9.576;2023-09-12T09:07:47;5.88;;;4.30;;
44169;SDS011;29836;52.286;9.576;2023-09-12T09:10:14;7.60;;;4.13;;
44169;SDS011;29836;52.286;9.576;2023-09-12T09:12:42;5.80;;;4.57;;
44169;SDS011;29836;52.286;9.576;2023-09-12T09:15:19;6.05;;;4.38;;
44169;SDS011;29836;52.286;9.576;2023-09-12T09:17:55;5.95;;;4.25;;
44169;SDS011;29836;52.286;9.576;2023-09-12T09:20:26;8.63;;;4.85;;
44169;SDS011;29836;52.286;9.576;2023-09-12T09:22:57;7.45;;;4.88;;
44169;SDS011;29836;52.286;9.576;2023-09-12T09:25:31;8.07;;;5.57;;
44169;SDS011;29836;52.286;9.576;2023-09-12T09:27:57;7.93;;;5.75;;
44169;SDS011;29836;52.286;9.576;2023-09-12T09:30:38;7.38;;;5.95;;
44169;SDS011;29836;52.286;9.576;2023-09-12T09:33:09;9.98;;;6.53;;
44169;SDS011;29836;52.286;9.576;2023-09-12T09:35:35;11.57;;;7.13;;
44169;SDS011;29836;52.286;9.576;2023-09-12T09:38:02;9.88;;;7.38;;
44169;SDS011;29836;52.286;9.576;2023-09-12T09:40:28;9.57;;;6.95;;
44169;SDS011;29836;52.286;9.576;2023-09-12T09:42:55;10.60;;;6.93;;
44169;SDS011;29836;52.286;9.576;2023-09-12T09:45:24;10.05;;;7.03;;
44169;SDS011;29836;52.286;9.576;2023-09-12T09:47:50;11.95;;;7.65;;
44169;SDS011;29836;52.286;9.576;2023-09-12T09:50:16;12.05;;;8.25;;
44169;SDS011;29836;52.286;9.576;2023-09-12T09:52:42;12.18;;;7.63;;
44169;SDS011;29836;52.286;9.576;2023-09-12T09:55:19;11.35;;;7.95;;
44169;SDS011;29836;52.286;9.576;2023-09-12T09:57:44;11.88;;;7.72;;
44169;SDS011;29836;52.286;9.576;2023-09-12T10:00:10;11.07;;;7.93;;
44169;SDS011;29836;52.286;9.576;2023-09-12T10:02:39;11.70;;;8.70;;
44169;SDS011;29836;52.286;9.576;2023-09-12T10:05:06;12.40;;;8.40;;
44169;SDS011;29836;52.286;9.576;2023-09-12T10:07:36;14.10;;;9.43;;
44169;SDS011;29836;52.286;9.576;2023-09-12T10:10:03;13.55;;;9.40;;
44169;SDS011;29836;52.286;9.576;2023-09-12T10:12:33;12.93;;;9.20;;
44169;SDS011;29836;52.286;9.576;2023-09-12T10:15:01;11.30;;;9.02;;
44169;SDS011;29836;52.286;9.576;2023-09-12T10:17:31;12.95;;;9.75;;
44169;SDS011;29836;52.286;9.576;2023-09-12T10:20:02;12.40;;;7.82;;
44169;SDS011;29836;52.286;9.576;2023-09-12T10:22:36;13.45;;;9.73;;
44169;SDS011;29836;52.286;9.576;2023-09-12T10:25:05;13.40;;;10.68;;
44169;SDS011;29836;52.286;9.576;2023-09-12T10:27:32;14.45;;;9.75;;
44169;SDS011;29836;52.286;9.576;2023-09-12T10:29:59;13.95;;;8.63;;
44169;SDS011;29836;52.286;9.576;2023-09-12T10:32:26;14.57;;;10.05;;
44169;SDS011;29836;52.286;9.576;2023-09-12T10:34:53;14.18;;;10.05;;
44169;SDS011;29836;52.286;9.576;2023-09-12T10:37:23;14.88;;;9.60;;
44169;SDS011;29836;52.286;9.576;2023-09-12T10:39:53;12.93;;;9.95;;
44169;SDS011;29836;52.286;9.576;2023-09-12T10:42:19;13.70;;;8.52;;
44169;SDS011;29836;52.286;9.576;2023-09-12T10:44:46;13.63;;;8.90;;
44169;SDS011;29836;52.286;9.576;2023-09-12T10:47:12;12.57;;;9.52;;
44169;SDS011;29836;52.286;9.576;2023-09-12T10:49:39;11.02;;;8.82;;
44169;SDS011;29836;52.286;9.576;2023-09-12T10:52:05;13.90;;;9.43;;
44169;SDS011;29836;52.286;9.576;2023-09-12T10:54:37;10.05;;;8.00;;
44169;SDS011;29836;52.286;9.576;2023-09-12T10:59:33;14.50;;;9.70;;
44169;SDS011;29836;52.286;9.576;2023-09-12T11:05:00;13.88;;;10.32;;
44169;SDS011;29836;52.286;9.576;2023-09-12T11:07:49;13.18;;;9.35;;
44169;SDS011;29836;52.286;9.576;2023-09-12T11:12:41;14.43;;;10.30;;
44169;SDS011;29836;52.286;9.576;2023-09-12T11:15:07;12.77;;;9.60;;
44169;SDS011;29836;52.286;9.576;2023-09-12T11:17:38;12.88;;;10.13;;
44169;SDS011;29836;52.286;9.576;2023-09-12T11:20:05;13.98;;;9.27;;
44169;SDS011;29836;52.286;9.576;2023-09-12T11:22:37;14.18;;;10.52;;
44169;SDS011;29836;52.286;9.576;2023-09-12T11:25:10;10.88;;;8.45;;
44169;SDS011;29836;52.286;9.576;2023-09-12T11:27:46;15.40;;;10.80;;
44169;SDS011;29836;52.286;9.576;2023-09-12T11:30:29;14.57;;;10.68;;
44169;SDS011;29836;52.286;9.576;2023-09-12T11:32:57;11.77;;;8.45;;
44169;SDS011;29836;52.286;9.576;2023-09-12T11:35:26;20.80;;;11.52;;
44169;SDS011;29836;52.286;9.576;2023-09-12T11:37:53;15.85;;;10.05;;
44169;SDS011;29836;52.286;9.576;2023-09-12T11:40:40;12.55;;;9.38;;
44169;SDS011;29836;52.286;9.576;2023-09-12T11:43:08;12.95;;;9.35;;
44169;SDS011;29836;52.286;9.576;2023-09-12T11:45:44;16.45;;;9.82;;
44169;SDS011;29836;52.286;9.576;2023-09-12T11:48:11;15.00;;;9.57;;
44169;SDS011;29836;52.286;9.576;2023-09-12T11:50:37;16.17;;;10.57;;
44169;SDS011;29836;52.286;9.576;2023-09-12T11:53:05;16.90;;;10.38;;
44169;SDS011;29836;52.286;9.576;2023-09-12T11:55:33;16.30;;;10.82;;
44169;SDS011;29836;52.286;9.576;2023-09-12T11:58:00;14.05;;;9.27;;
44169;SDS011;29836;52.286;9.576;2023-09-12T12:00:26;12.32;;;8.40;;
44169;SDS011;29836;52.286;9.576;2023-09-12T12:02:53;7.85;;;5.85;;
44169;SDS011;29836;52.286;9.576;2023-09-12T12:05:19;9.27;;;7.15;;
44169;SDS011;29836;52.286;9.576;2023-09-12T12:07:46;10.95;;;6.55;;
44169;SDS011;29836;52.286;9.576;2023-09-12T12:10:12;9.95;;;6.13;;
44169;SDS011;29836;52.286;9.576;2023-09-12T12:12:38;8.38;;;6.65;;
44169;SDS011;29836;52.286;9.576;2023-09-12T12:15:04;8.98;;;7.38;;
44169;SDS011;29836;52.286;9.576;2023-09-12T12:17:36;11.00;;;7.45;;
44169;SDS011;29836;52.286;9.576;2023-09-12T12:20:05;11.93;;;7.90;;
44169;SDS011;29836;52.286;9.576;2023-09-12T12:22:35;11.02;;;8.02;;
44169;SDS011;29836;52.286;9.576;2023-09-12T12:25:07;14.35;;;9.18;;
44169;SDS011;29836;52.286;9.576;2023-09-12T12:27:35;12.57;;;9.00;;
44169;SDS011;29836;52.286;9.576;2023-09-12T12:30:02;10.82;;;8.38;;
44169;SDS011;29836;52.286;9.576;2023-09-12T12:32:28;10.73;;;7.55;;
44169;SDS011;29836;52.286;9.576;2023-09-12T12:34:54;15.45;;;9.27;;
44169;SDS011;29836;52.286;9.576;2023-09-12T12:37:19;13.45;;;9.25;;
44169;SDS011;29836;52.286;9.576;2023-09-12T12:39:45;12.60;;;9.25;;
44169;SDS011;29836;52.286;9.576;2023-09-12T12:42:10;12.60;;;9.07;;
44169;SDS011;29836;52.286;9.576;2023-09-12T12:44:36;11.13;;;8.60;;
44169;SDS011;29836;52.286;9.576;2023-09-12T12:47:05;10.55;;;8.32;;
44169;SDS011;29836;52.286;9.576;2023-09-12T12:49:35;10.32;;;7.60;;
44169;SDS011;29836;52.286;9.576;2023-09-12T12:52:03;10.50;;;7.22;;
44169;SDS011;29836;52.286;9.576;2023-09-12T12:54:31;8.93;;;6.82;;
44169;SDS011;29836;52.286;9.576;2023-09-12T12:56:58;10.52;;;6.95;;
44169;SDS011;29836;52.286;9.576;2023-09-12T12:59:24;8.70;;;6.30;;
44169;SDS011;29836;52.286;9.576;2023-09-12T13:01:50;7.13;;;5.55;;
44169;SDS011;29836;52.286;9.576;2023-09-12T13:04:16;5.95;;;4.22;;
44169;SDS011;29836;52.286;9.576;2023-09-12T13:06:42;4.95;;;4.10;;
44169;SDS011;29836;52.286;9.576;2023-09-12T13:09:07;6.28;;;4.00;;
44169;SDS011;29836;52.286;9.576;2023-09-12T13:11:34;6.68;;;3.92;;
44169;SDS011;29836;52.286;9.576;2023-09-12T13:14:00;5.25;;;3.40;;
44169;SDS011;29836;52.286;9.576;2023-09-12T13:16:26;5.43;;;3.83;;
44169;SDS011;29836;52.286;9.576;2023-09-12T13:18:54;4.53;;;3.47;;
44169;SDS011;29836;52.286;9.576;2023-09-12T13:21:19;4.70;;;3.30;;
44169;SDS011;29836;52.286;9.576;2023-09-12T13:23:45;5.63;;;3.60;;
44169;SDS011;29836;52.286;9.576;2023-09-12T13:26:10;4.07;;;3.25;;
44169;SDS011;29836;52.286;9.576;2023-09-12T13:28:36;5.45;;;3.40;;
44169;SDS011;29836;52.286;9.576;2023-09-12T13:31:02;4.07;;;3.28;;
44169;SDS011;29836;52.286;9.576;2023-09-12T13:33:28;4.57;;;3.17;;
44169;SDS011;29836;52.286;9.576;2023-09-12T13:35:54;5.15;;;2.90;;
44169;SDS011;29836;52.286;9.576;2023-09-12T13:38:19;4.47;;;3.20;;
44169;SDS011;29836;52.286;9.576;2023-09-12T13:40:46;6.38;;;2.97;;
44169;SDS011;29836;52.286;9.576;2023-09-12T13:43:12;4.97;;;2.65;;
44169;SDS011;29836;52.286;9.576;2023-09-12T13:45:38;5.15;;;2.80;;
44169;SDS011;29836;52.286;9.576;2023-09-12T13:48:04;3.70;;;2.67;;
44169;SDS011;29836;52.286;9.576;2023-09-12T13:50:30;4.32;;;2.75;;
44169;SDS011;29836;52.286;9.576;2023-09-12T13:53:00;4.07;;;2.45;;
44169;SDS011;29836;52.286;9.576;2023-09-12T13:55:31;4.18;;;2.55;;
44169;SDS011;29836;52.286;9.576;2023-09-12T13:58:01;3.38;;;2.47;;
44169;SDS011;29836;52.286;9.576;2023-09-12T14:00:27;4.03;;;2.80;;
44169;SDS011;29836;52.286;9.576;2023-09-12T14:02:53;4.07;;;2.35;;
44169;SDS011;29836;52.286;9.576;2023-09-12T14:05:18;4.72;;;2.40;;
44169;SDS011;29836;52.286;9.576;2023-09-12T14:07:44;3.47;;;2.20;;
44169;SDS011;29836;52.286;9.576;2023-09-12T14:10:09;4.40;;;2.28;;
44169;SDS011;29836;52.286;9.576;2023-09-12T14:12:35;3.50;;;2.50;;
44169;SDS011;29836;52.286;9.576;2023-09-12T14:15:01;4.15;;;2.30;;
44169;SDS011;29836;52.286;9.576;2023-09-12T14:17:28;2.97;;;2.10;;
44169;SDS011;29836;52.286;9.576;2023-09-12T14:19:54;3.13;;;2.10;;
44169;SDS011;29836;52.286;9.576;2023-09-12T14:22:20;3.47;;;2.38;;
44169;SDS011;29836;52.286;9.576;2023-09-12T14:24:46;3.20;;;1.95;;
44169;SDS011;29836;52.286;9.576;2023-09-12T14:27:12;3.10;;;2.28;;
44169;SDS011;29836;52.286;9.576;2023-09-12T14:29:37;3.00;;;2.20;;
44169;SDS011;29836;52.286;9.576;2023-09-12T14:32:03;4.47;;;2.42;;
44169;SDS011;29836;52.286;9.576;2023-09-12T14:34:29;3.67;;;2.50;;
44169;SDS011;29836;52.286;9.576;2023-09-12T14:36:56;4.65;;;2.60;;
44169;SDS011;29836;52.286;9.576;2023-09-12T14:39:22;4.25;;;2.40;;
44169;SDS011;29836;52.286;9.576;2023-09-12T14:41:48;3.50;;;2.40;;